Time;durP1;ratioP1;P1;durP2;ratioP2;P2;SDS_P1;SDS_P2;PMS_P1;PMS_P2;Temp;Humidity;BMP_temperature;BMP_pressure;BME280_temperature;BME280_humidity;BME280_pressure;Samples;Min_cycle;Max_cycle;Signal;HPM_P1;HPM_P2
2022/02/17 00:00:21;;;;;;;13.13;2.05;;;13.00;99.90;;;;;;5073996;28;20063;-60
2022/02/17 00:02:49;;;;;;;11.68;2.30;;;13.00;99.90;;;;;;5090003;28;20059;-60
2022/02/17 00:05:15;;;;;;;12.70;2.72;;;13.00;99.90;;;;;;5073784;28;20392;-60
2022/02/17 00:07:40;;;;;;;10.55;2.17;;;13.00;99.90;;;;;;5074052;28;20025;-61
2022/02/17 00:10:07;;;;;;;11.63;2.05;;;12.90;99.90;;;;;;5073851;28;20040;-60
2022/02/17 00:12:32;;;;;;;10.68;1.38;;;12.90;99.90;;;;;;5073793;28;20515;-60
2022/02/17 00:14:58;;;;;;;7.53;2.28;;;12.80;99.90;;;;;;5073817;28;20045;-61
2022/02/17 00:17:24;;;;;;;7.93;1.50;;;12.80;99.90;;;;;;5073714;28;20100;-61
2022/02/17 00:19:50;;;;;;;8.05;1.73;;;12.70;99.90;;;;;;5073543;28;20051;-60
2022/02/17 00:22:16;;;;;;;6.32;1.20;;;12.70;99.90;;;;;;5073774;28;20032;-60
2022/02/17 00:24:42;;;;;;;9.15;1.60;;;12.70;99.90;;;;;;5073766;28;20029;-60
2022/02/17 00:27:08;;;;;;;9.25;1.48;;;12.60;99.90;;;;;;5073448;28;20023;-60
2022/02/17 00:29:33;;;;;;;8.10;1.10;;;12.60;99.90;;;;;;5073522;28;20032;-60
2022/02/17 00:31:59;;;;;;;4.95;0.85;;;12.60;99.90;;;;;;5073539;28;20033;-60
2022/02/17 00:34:25;;;;;;;5.82;1.00;;;12.60;99.90;;;;;;5073486;28;20029;-61
2022/02/17 00:36:50;;;;;;;4.13;1.23;;;12.60;99.90;;;;;;5073270;28;20499;-60
2022/02/17 00:39:16;;;;;;;10.18;1.52;;;12.60;99.90;;;;;;5073347;28;20024;-60
2022/02/17 00:41:42;;;;;;;9.63;2.00;;;12.60;99.90;;;;;;5073390;28;20468;-60
2022/02/17 00:44:07;;;;;;;9.63;2.03;;;12.50;99.90;;;;;;5073257;28;20029;-60
2022/02/17 00:46:33;;;;;;;11.65;2.28;;;12.50;99.90;;;;;;5073304;28;20059;-60
2022/02/17 00:48:59;;;;;;;12.98;1.92;;;12.40;99.90;;;;;;5073231;28;20024;-60
2022/02/17 00:51:25;;;;;;;10.88;2.13;;;12.40;99.90;;;;;;5073051;28;20098;-61
2022/02/17 00:53:50;;;;;;;8.73;1.75;;;12.30;99.90;;;;;;5073290;28;20040;-60
2022/02/17 00:56:16;;;;;;;12.45;1.95;;;12.30;99.90;;;;;;5072989;28;20484;-60
2022/02/17 00:58:42;;;;;;;12.38;2.20;;;12.30;99.90;;;;;;5073025;28;20115;-61
2022/02/17 01:01:08;;;;;;;12.00;2.05;;;12.20;99.90;;;;;;5073059;28;20120;-60
2022/02/17 01:03:33;;;;;;;13.43;2.35;;;12.20;99.90;;;;;;5088617;28;20464;-59
2022/02/17 01:06:00;;;;;;;17.55;2.53;;;12.20;99.90;;;;;;5072802;28;20032;-60
2022/02/17 01:08:25;;;;;;;12.55;2.35;;;12.20;99.90;;;;;;5072958;28;20115;-60
2022/02/17 01:10:51;;;;;;;17.60;3.38;;;12.10;99.90;;;;;;5072143;28;20104;-60
2022/02/17 01:13:16;;;;;;;17.40;2.72;;;12.10;99.90;;;;;;5072895;28;20362;-60
2022/02/17 01:15:42;;;;;;;17.20;3.25;;;12.00;99.90;;;;;;5072830;28;20118;-60
2022/02/17 01:18:07;;;;;;;15.88;3.85;;;12.00;99.90;;;;;;5072590;28;20594;-60
2022/02/17 01:20:33;;;;;;;21.17;3.65;;;12.00;99.90;;;;;;5088322;28;20048;-60
2022/02/17 01:22:58;;;;;;;16.58;2.90;;;11.90;99.90;;;;;;5072703;28;20031;-60
2022/02/17 01:25:24;;;;;;;18.45;2.90;;;11.90;99.90;;;;;;5072782;28;20060;-60
2022/02/17 01:27:51;;;;;;;23.27;4.00;;;11.90;99.90;;;;;;5072645;28;20025;-60
2022/02/17 01:30:17;;;;;;;16.42;3.20;;;11.90;99.90;;;;;;5072596;28;20020;-60
2022/02/17 01:32:43;;;;;;;15.90;3.28;;;11.90;99.90;;;;;;5072846;28;20094;-59
2022/02/17 01:35:09;;;;;;;18.38;3.70;;;11.90;99.90;;;;;;5072529;28;20025;-60
2022/02/17 01:37:35;;;;;;;17.48;3.67;;;11.90;99.90;;;;;;5086076;28;20036;-60
2022/02/17 01:40:00;;;;;;;18.27;4.03;;;11.90;99.90;;;;;;5051197;28;20024;-60
2022/02/17 01:42:26;;;;;;;17.20;4.05;;;11.90;99.90;;;;;;5052987;28;20065;-60
2022/02/17 01:44:51;;;;;;;23.55;4.55;;;11.90;99.90;;;;;;5092851;28;20035;-60
2022/02/17 01:47:18;;;;;;;21.65;3.45;;;11.90;99.90;;;;;;5092559;28;20041;-60
2022/02/17 01:49:49;;;;;;;19.70;4.30;;;11.90;99.90;;;;;;5092691;28;20103;-60
2022/02/17 01:52:15;;;;;;;17.67;3.55;;;11.90;99.90;;;;;;5108231;28;20020;-60
2022/02/17 01:54:43;;;;;;;23.70;4.30;;;11.90;99.90;;;;;;5092628;28;20028;-60
2022/02/17 01:57:14;;;;;;;28.15;4.85;;;11.90;99.90;;;;;;5092505;28;20032;-60
2022/02/17 01:59:41;;;;;;;30.98;4.25;;;11.90;99.90;;;;;;5092966;28;20157;-60
2022/02/17 02:02:06;;;;;;;26.08;5.18;;;11.80;99.90;;;;;;5092674;28;20016;-60
2022/02/17 02:04:32;;;;;;;23.80;4.47;;;11.80;99.90;;;;;;5092601;28;20036;-60
2022/02/17 02:06:58;;;;;;;24.75;4.55;;;11.80;99.90;;;;;;5092676;28;20034;-60
2022/02/17 02:09:23;;;;;;;23.17;4.43;;;11.70;99.90;;;;;;5090187;28;20024;-60
2022/02/17 02:11:49;;;;;;;30.45;4.75;;;11.70;99.90;;;;;;5072447;28;20027;-60
2022/02/17 02:14:16;;;;;;;30.98;5.55;;;11.60;99.90;;;;;;5088627;28;20435;-60
2022/02/17 02:16:43;;;;;;;27.25;5.45;;;11.60;99.90;;;;;;5092787;28;20020;-60
2022/02/17 02:19:08;;;;;;;23.08;4.32;;;11.60;99.90;;;;;;5092382;28;20021;-60
2022/02/17 02:21:34;;;;;;;22.17;4.20;;;11.50;99.90;;;;;;5093128;28;20059;-60
2022/02/17 02:24:00;;;;;;;19.63;3.65;;;11.50;99.80;;;;;;5096057;28;20035;-60
2022/02/17 02:26:27;;;;;;;18.83;4.10;;;11.40;99.90;;;;;;5096257;28;20024;-60
2022/02/17 02:28:53;;;;;;;24.95;4.35;;;11.40;99.90;;;;;;5095012;28;20024;-60
2022/02/17 02:31:20;;;;;;;24.13;6.18;;;11.40;99.90;;;;;;5096111;28;20035;-60
2022/02/17 02:33:45;;;;;;;24.92;5.18;;;11.30;99.90;;;;;;5096195;28;20028;-60
2022/02/17 02:36:11;;;;;;;25.40;6.03;;;11.30;99.90;;;;;;5096053;28;20031;-60
2022/02/17 02:38:36;;;;;;;22.75;4.70;;;11.30;99.90;;;;;;5095762;28;20590;-60
2022/02/17 02:41:02;;;;;;;27.13;4.70;;;11.20;99.90;;;;;;5095955;28;20024;-60
2022/02/17 02:43:27;;;;;;;23.35;5.53;;;11.20;99.90;;;;;;5095960;28;20055;-60
2022/02/17 02:45:53;;;;;;;26.00;4.50;;;11.20;99.90;;;;;;5095965;28;20032;-60
2022/02/17 02:48:19;;;;;;;20.60;4.30;;;11.10;99.70;;;;;;5095587;28;20104;-60
2022/02/17 02:50:45;;;;;;;19.35;4.57;;;11.10;99.50;;;;;;5095873;28;20047;-60
2022/02/17 02:53:14;;;;;;;18.25;4.05;;;11.10;98.90;;;;;;5111196;28;20054;-60
2022/02/17 02:55:46;;;;;;;26.27;5.50;;;11.00;98.70;;;;;;5095835;28;20062;-60
2022/02/17 02:58:13;;;;;;;24.85;3.97;;;11.00;98.70;;;;;;5095518;28;20027;-60
2022/02/17 03:00:43;;;;;;;17.48;3.50;;;11.00;98.50;;;;;;5095692;28;20119;-60
2022/02/17 03:03:10;;;;;;;24.23;4.88;;;11.00;98.40;;;;;;5095470;28;20098;-60
2022/02/17 03:05:36;;;;;;;19.27;3.55;;;10.90;98.10;;;;;;5111042;28;20111;-60
2022/02/17 03:08:02;;;;;;;19.63;3.13;;;10.90;97.60;;;;;;5095434;28;20112;-60
2022/02/17 03:10:28;;;;;;;23.77;3.28;;;10.90;97.70;;;;;;5084173;28;20032;-60
2022/02/17 03:12:54;;;;;;;24.30;3.28;;;10.90;97.20;;;;;;5075230;28;20017;-60
2022/02/17 03:15:21;;;;;;;19.73;4.15;;;10.90;96.80;;;;;;5075042;28;20430;-60
2022/02/17 03:17:47;;;;;;;22.38;4.80;;;10.90;96.90;;;;;;5074998;28;20095;-60
2022/02/17 03:20:13;;;;;;;19.33;4.35;;;10.80;97.10;;;;;;5074761;28;20559;-60
2022/02/17 03:22:40;;;;;;;23.88;5.15;;;10.80;97.20;;;;;;5075056;28;20064;-60
2022/02/17 03:25:08;;;;;;;22.27;4.07;;;10.80;97.10;;;;;;5074801;28;20039;-60
2022/02/17 03:27:34;;;;;;;23.55;4.75;;;10.80;96.40;;;;;;5074839;28;20477;-60
2022/02/17 03:29:59;;;;;;;25.48;4.18;;;10.80;96.50;;;;;;5074679;28;20032;-59
2022/02/17 03:32:25;;;;;;;17.70;3.15;;;10.70;95.90;;;;;;5074749;28;20024;-60
2022/02/17 03:34:50;;;;;;;19.85;3.38;;;10.70;95.70;;;;;;5073997;28;20488;-60
2022/02/17 03:37:16;;;;;;;16.98;3.05;;;10.60;95.20;;;;;;5074631;28;20376;-60
2022/02/17 03:39:41;;;;;;;18.05;3.55;;;10.70;94.70;;;;;;5074450;28;20047;-60
2022/02/17 03:42:07;;;;;;;19.50;3.80;;;10.60;94.80;;;;;;5074563;28;20499;-60
2022/02/17 03:44:33;;;;;;;19.95;3.50;;;10.60;94.80;;;;;;5074593;28;20055;-60
2022/02/17 03:46:59;;;;;;;21.42;3.50;;;10.60;94.40;;;;;;5073165;28;20025;-60
2022/02/17 03:49:24;;;;;;;14.10;2.65;;;10.60;93.80;;;;;;5074227;28;20031;-60
2022/02/17 03:51:51;;;;;;;15.98;3.90;;;10.60;93.70;;;;;;5089993;28;20025;-60
2022/02/17 03:54:18;;;;;;;16.48;2.72;;;10.60;93.70;;;;;;5074340;28;20025;-60
2022/02/17 03:56:44;;;;;;;13.50;2.58;;;10.60;94.00;;;;;;5074257;28;20028;-60
2022/02/17 03:59:10;;;;;;;12.57;2.50;;;10.50;94.00;;;;;;5089786;28;20476;-60
2022/02/17 04:01:37;;;;;;;19.45;3.60;;;10.60;94.30;;;;;;5089870;28;20525;-59
2022/02/17 04:04:05;;;;;;;15.43;3.40;;;10.60;94.60;;;;;;5073959;28;20036;-60
2022/02/17 04:06:31;;;;;;;15.45;3.28;;;10.60;95.10;;;;;;5074112;28;20071;-60
2022/02/17 04:08:57;;;;;;;23.05;3.85;;;10.50;95.40;;;;;;5074064;28;20048;-60
2022/02/17 04:11:23;;;;;;;25.00;5.10;;;10.50;95.70;;;;;;5089417;28;20037;-60
2022/02/17 04:13:49;;;;;;;18.67;4.20;;;10.50;95.80;;;;;;5074012;28;20044;-60
2022/02/17 04:16:18;;;;;;;27.05;5.90;;;10.50;96.00;;;;;;5073740;28;20063;-60
2022/02/17 04:18:48;;;;;;;26.13;5.05;;;10.50;96.30;;;;;;5073879;28;20494;-60
2022/02/17 04:21:16;;;;;;;27.27;4.97;;;10.50;96.00;;;;;;5073625;28;20131;-60
2022/02/17 04:23:44;;;;;;;23.45;3.83;;;10.50;95.90;;;;;;5073797;28;20419;-60
2022/02/17 04:26:18;;;;;;;32.60;6.40;;;10.50;96.00;;;;;;5072334;28;20029;-60
2022/02/17 04:28:46;;;;;;;22.52;4.47;;;10.50;95.70;;;;;;5073618;28;20028;-60
2022/02/17 04:31:11;;;;;;;26.02;4.80;;;10.50;95.80;;;;;;5073437;28;20141;-60
2022/02/17 04:33:39;;;;;;;27.70;4.78;;;10.40;95.80;;;;;;5073563;28;20066;-60
2022/02/17 04:36:05;;;;;;;26.23;6.07;;;10.40;95.70;;;;;;5073646;28;20051;-61
2022/02/17 04:38:31;;;;;;;28.92;6.88;;;10.40;95.60;;;;;;5073332;28;20029;-60
2022/02/17 04:43:42;;;;;;;19.92;5.20;;;10.30;95.60;;;;;;5073651;28;20499;-60
2022/02/17 04:46:08;;;;;;;25.95;5.38;;;10.30;95.20;;;;;;5071175;28;20040;-59
2022/02/17 04:48:34;;;;;;;26.30;4.43;;;10.30;95.40;;;;;;5091201;28;20024;-60
2022/02/17 04:51:00;;;;;;;25.50;5.63;;;10.30;94.90;;;;;;5093415;28;20032;-59
2022/02/17 04:53:26;;;;;;;31.08;5.32;;;10.30;94.90;;;;;;5093390;28;20027;-60
2022/02/17 04:55:51;;;;;;;35.40;5.85;;;10.30;95.00;;;;;;5093235;28;20024;-60
2022/02/17 04:58:17;;;;;;;24.83;5.05;;;10.30;95.20;;;;;;5093297;28;20032;-60
2022/02/17 05:00:44;;;;;;;35.38;5.72;;;10.30;95.40;;;;;;5093429;28;20032;-60
2022/02/17 05:03:10;;;;;;;34.58;6.03;;;10.30;95.50;;;;;;5093361;28;20047;-60
2022/02/17 05:05:36;;;;;;;28.10;5.65;;;10.30;95.70;;;;;;5108957;28;20052;-60
2022/02/17 05:08:02;;;;;;;34.08;7.07;;;10.30;95.80;;;;;;5093215;28;20105;-60
2022/02/17 05:10:28;;;;;;;31.08;5.40;;;10.20;95.90;;;;;;5082008;28;20036;-60
2022/02/17 05:12:53;;;;;;;29.70;6.47;;;10.30;95.90;;;;;;5072878;28;20107;-60
2022/02/17 05:15:19;;;;;;;25.52;4.65;;;10.30;96.00;;;;;;5071518;28;20115;-60
2022/02/17 05:17:44;;;;;;;25.88;4.97;;;10.30;96.00;;;;;;5071696;28;20028;-59
2022/02/17 05:20:10;;;;;;;28.02;5.18;;;10.20;95.80;;;;;;5072601;28;20074;-60
2022/02/17 05:22:40;;;;;;;34.15;6.35;;;10.20;96.10;;;;;;5072926;28;20031;-60
2022/02/17 05:25:06;;;;;;;;;;;10.20;96.20;;;;;;5073229;28;20094;-60
2022/02/17 05:27:32;;;;;;;29.85;5.03;;;10.20;96.50;;;;;;5072668;28;20376;-60
2022/02/17 05:29:57;;;;;;;29.60;5.88;;;10.10;96.70;;;;;;5071610;28;20123;-60
2022/02/17 05:32:23;;;;;;;25.42;5.60;;;10.10;96.50;;;;;;5072695;28;20028;-60
2022/02/17 05:34:48;;;;;;;26.83;5.90;;;10.10;96.20;;;;;;5072752;28;20384;-60
2022/02/17 05:37:14;;;;;;;28.67;5.13;;;10.10;96.20;;;;;;5072649;28;20033;-60
2022/02/17 05:39:39;;;;;;;25.58;5.13;;;10.10;96.20;;;;;;5072537;28;20476;-60
2022/02/17 05:42:05;;;;;;;29.02;6.00;;;10.10;95.90;;;;;;5072150;28;20480;-60
2022/02/17 05:44:30;;;;;;;25.73;5.38;;;10.10;95.90;;;;;;5069573;28;20440;-60
2022/02/17 05:46:56;;;;;;;26.40;5.78;;;10.10;95.80;;;;;;5070536;28;20020;-60
2022/02/17 05:49:22;;;;;;;30.77;5.78;;;10.10;96.10;;;;;;5071940;28;20078;-60
2022/02/17 05:51:47;;;;;;;28.80;5.97;;;10.00;95.90;;;;;;5072570;28;20484;-60
2022/02/17 05:54:13;;;;;;;28.67;5.68;;;10.10;95.90;;;;;;5072360;28;20024;-60
2022/02/17 05:56:40;;;;;;;32.70;6.03;;;10.10;95.80;;;;;;5073451;28;20529;-60
2022/02/17 05:59:06;;;;;;;33.47;6.15;;;10.10;96.40;;;;;;5076286;28;20028;-60
2022/02/17 06:01:31;;;;;;;32.97;5.20;;;10.00;96.70;;;;;;5076460;28;20017;-60
2022/02/17 06:03:58;;;;;;;26.83;4.85;;;10.00;96.70;;;;;;5076423;28;20052;-60
2022/02/17 06:06:23;;;;;;;20.42;4.18;;;9.90;96.40;;;;;;5075670;28;20078;-60
2022/02/17 06:08:49;;;;;;;20.13;3.50;;;9.80;95.60;;;;;;5075738;28;20036;-60
2022/02/17 06:11:14;;;;;;;21.30;3.97;;;9.80;95.30;;;;;;5075581;28;20032;-60
2022/02/17 06:13:40;;;;;;;19.05;3.72;;;9.80;95.20;;;;;;5076029;28;20023;-60
2022/02/17 06:16:05;;;;;;;16.35;4.72;;;9.80;94.80;;;;;;5076272;28;20032;-60
2022/02/17 06:18:31;;;;;;;24.10;3.45;;;9.80;94.90;;;;;;5091787;28;20537;-60
2022/02/17 06:20:56;;;;;;;15.07;3.17;;;9.70;95.00;;;;;;5075947;28;20496;-60
2022/02/17 06:23:22;;;;;;;19.08;3.95;;;9.70;95.00;;;;;;5075925;28;20028;-60
2022/02/17 06:25:47;;;;;;;20.48;4.75;;;9.70;95.40;;;;;;5076004;28;20028;-60
2022/02/17 06:28:13;;;;;;;26.15;4.60;;;9.70;95.80;;;;;;5075751;28;20028;-60
2022/02/17 06:30:41;;;;;;;36.15;5.22;;;9.70;96.20;;;;;;5075779;28;20067;-60
2022/02/17 06:33:07;;;;;;;17.27;4.20;;;9.70;95.70;;;;;;5091534;28;20021;-60
2022/02/17 06:35:36;;;;;;;23.23;4.22;;;9.60;95.10;;;;;;5075851;28;20017;-60
2022/02/17 06:38:02;;;;;;;16.65;3.53;;;9.60;94.90;;;;;;5075743;28;20507;-60
2022/02/17 06:40:28;;;;;;;15.15;3.13;;;9.60;94.50;;;;;;5075767;28;20040;-60
2022/02/17 06:42:54;;;;;;;21.15;3.38;;;9.60;94.60;;;;;;5075823;28;20552;-59
2022/02/17 06:45:20;;;;;;;20.63;3.45;;;9.60;94.30;;;;;;5075420;28;20519;-60
2022/02/17 06:47:46;;;;;;;21.85;3.92;;;9.60;94.10;;;;;;5086858;28;20032;-60
2022/02/17 06:50:14;;;;;;;14.00;3.28;;;9.60;94.10;;;;;;5095760;28;20073;-60
2022/02/17 06:52:41;;;;;;;16.90;3.05;;;9.50;94.10;;;;;;5095701;28;20104;-60
2022/02/17 06:55:07;;;;;;;14.68;2.80;;;9.50;93.80;;;;;;5095713;28;20020;-60
2022/02/17 06:57:33;;;;;;;12.68;2.70;;;9.60;93.40;;;;;;5095675;28;20507;-60
2022/02/17 07:00:02;;;;;;;11.52;2.22;;;9.50;93.50;;;;;;5095489;28;20095;-59
2022/02/17 07:02:31;;;;;;;17.60;2.90;;;9.50;93.70;;;;;;5095639;28;20400;-59
2022/02/17 07:04:57;;;;;;;16.55;2.42;;;9.50;93.40;;;;;;5095590;28;20082;-60
2022/02/17 07:07:22;;;;;;;18.00;2.53;;;9.50;93.30;;;;;;5095358;28;20028;-60
2022/02/17 07:09:48;;;;;;;12.70;2.80;;;9.50;93.00;;;;;;5088908;28;20084;-60
2022/02/17 07:12:14;;;;;;;21.80;3.42;;;9.50;93.20;;;;;;5075096;28;20042;-60
2022/02/17 07:14:41;;;;;;;19.15;3.17;;;9.50;93.00;;;;;;5073781;28;20052;-60
2022/02/17 07:17:06;;;;;;;16.45;2.47;;;9.50;93.00;;;;;;5075085;28;20484;-60
2022/02/17 07:19:32;;;;;;;14.57;2.15;;;9.50;92.40;;;;;;5074146;28;20464;-60
2022/02/17 07:21:58;;;;;;;13.75;2.22;;;9.50;92.60;;;;;;5074469;28;20032;-60
2022/02/17 07:24:23;;;;;;;14.55;2.25;;;9.50;92.30;;;;;;5090034;28;20016;-60
2022/02/17 07:26:49;;;;;;;10.77;1.65;;;9.40;92.30;;;;;;5073102;28;20020;-60
2022/02/17 07:29:15;;;;;;;10.18;1.80;;;9.40;91.80;;;;;;5071904;28;20027;-59
2022/02/17 07:31:41;;;;;;;10.95;2.17;;;9.40;91.30;;;;;;5071869;28;20078;-59
2022/02/17 07:34:07;;;;;;;6.25;1.02;;;9.40;90.70;;;;;;5072980;28;20099;-60
2022/02/17 07:36:33;;;;;;;9.05;1.60;;;9.40;90.60;;;;;;5074406;28;20024;-60
2022/02/17 07:38:59;;;;;;;10.35;1.48;;;9.30;90.20;;;;;;5074863;28;20021;-59
2022/02/17 07:41:24;;;;;;;9.23;1.58;;;9.40;90.00;;;;;;5090271;28;20031;-59
2022/02/17 07:43:50;;;;;;;9.73;1.77;;;9.30;89.50;;;;;;5074617;28;20024;-59
2022/02/17 07:46:16;;;;;;;8.57;1.67;;;9.30;88.90;;;;;;5073434;28;20061;-60
2022/02/17 07:48:42;;;;;;;7.40;1.50;;;9.40;89.80;;;;;;5071527;28;20082;-60
2022/02/17 07:51:07;;;;;;;11.43;1.95;;;9.40;89.80;;;;;;5072909;28;20024;-60
2022/02/17 07:53:33;;;;;;;14.07;3.08;;;9.40;89.40;;;;;;5072617;28;20571;-60
2022/02/17 07:55:59;;;;;;;10.68;1.70;;;9.40;90.00;;;;;;5072782;28;20028;-59
2022/02/17 07:58:26;;;;;;;12.70;3.38;;;9.40;90.10;;;;;;5072752;28;20388;-60
2022/02/17 08:00:51;;;;;;;11.52;2.13;;;9.50;90.60;;;;;;5074202;28;20032;-60
2022/02/17 08:03:17;;;;;;;13.07;1.83;;;9.50;91.00;;;;;;5074191;28;20025;-60
2022/02/17 08:05:43;;;;;;;11.57;1.92;;;9.50;91.00;;;;;;5074075;28;20396;-60
2022/02/17 08:08:10;;;;;;;13.75;1.98;;;9.40;91.00;;;;;;5074127;28;20063;-60
2022/02/17 08:10:36;;;;;;;12.80;2.05;;;9.40;90.40;;;;;;5073464;28;20040;-60
2022/02/17 08:13:02;;;;;;;10.82;1.40;;;9.40;90.50;;;;;;5071215;28;20031;-60
2022/02/17 08:15:28;;;;;;;14.02;1.60;;;9.40;90.60;;;;;;5073404;28;20017;-60
2022/02/17 08:17:54;;;;;;;6.97;1.60;;;9.40;90.70;;;;;;5065078;28;20028;-60
2022/02/17 08:20:19;;;;;;;9.90;2.22;;;9.40;90.50;;;;;;5069343;28;20467;-60
2022/02/17 08:22:56;;;;;;;11.13;1.55;;;9.40;90.10;;;;;;5072449;28;20029;-60
2022/02/17 08:25:22;;;;;;;10.13;1.40;;;9.40;90.20;;;;;;5073525;28;20029;-60
2022/02/17 08:27:48;;;;;;;5.43;1.05;;;9.40;90.20;;;;;;5073664;28;20025;-60
2022/02/17 08:30:16;;;;;;;7.68;1.40;;;9.40;90.00;;;;;;5060422;28;20133;-60
2022/02/17 08:32:41;;;;;;;6.35;1.40;;;9.50;90.10;;;;;;5043219;28;20025;-59
2022/02/17 08:35:10;;;;;;;7.68;1.40;;;9.50;90.00;;;;;;5045667;28;20558;-60
2022/02/17 08:37:36;;;;;;;6.22;1.00;;;9.60;90.20;;;;;;5073169;28;20468;-60
2022/02/17 08:40:03;;;;;;;11.40;1.70;;;9.50;90.10;;;;;;5072259;28;20036;-60
2022/02/17 08:42:28;;;;;;;11.63;1.38;;;9.50;90.20;;;;;;5073304;28;20048;-59
2022/02/17 08:44:54;;;;;;;11.32;1.85;;;9.50;89.60;;;;;;5073343;28;20063;-60
2022/02/17 08:47:19;;;;;;;10.77;2.63;;;9.60;89.60;;;;;;5081087;28;20491;-60
2022/02/17 08:49:45;;;;;;;6.82;1.15;;;9.60;88.60;;;;;;5079822;28;20036;-60
2022/02/17 08:52:11;;;;;;;8.95;1.50;;;9.60;88.10;;;;;;5071381;28;20067;-60
2022/02/17 08:54:36;;;;;;;5.80;1.10;;;9.60;87.20;;;;;;5073083;28;20071;-60
2022/02/17 08:57:03;;;;;;;10.07;1.58;;;9.60;87.00;;;;;;5072826;28;20029;-60
2022/02/17 08:59:30;;;;;;;8.75;0.98;;;9.60;86.60;;;;;;5072728;28;20542;-60
2022/02/17 09:01:56;;;;;;;5.38;1.02;;;9.60;85.40;;;;;;5072615;28;20078;-60
2022/02/17 09:04:21;;;;;;;5.15;1.23;;;9.60;84.30;;;;;;5070923;28;20025;-60
2022/02/17 09:06:48;;;;;;;7.78;1.35;;;9.60;83.80;;;;;;5067003;28;20630;-60
2022/02/17 09:09:17;;;;;;;11.00;1.55;;;9.60;83.40;;;;;;5085794;28;20060;-60
2022/02/17 09:11:43;;;;;;;7.20;1.45;;;9.60;83.00;;;;;;5069060;28;20515;-60
2022/02/17 09:14:09;;;;;;;7.55;1.42;;;9.70;83.50;;;;;;5070877;28;20075;-60
2022/02/17 09:16:35;;;;;;;7.20;1.20;;;9.70;83.80;;;;;;5070970;28;20503;-60
2022/02/17 09:19:03;;;;;;;7.70;1.25;;;9.80;84.10;;;;;;5068732;28;20016;-60
2022/02/17 09:21:28;;;;;;;7.68;1.40;;;9.80;84.70;;;;;;5070902;28;20047;-60
2022/02/17 09:23:54;;;;;;;8.38;1.35;;;9.80;84.20;;;;;;5078321;28;20033;-60
2022/02/17 09:26:19;;;;;;;5.45;0.98;;;9.80;84.10;;;;;;5067123;28;20024;-59
2022/02/17 09:28:48;;;;;;;9.82;1.63;;;9.80;83.20;;;;;;5071226;28;20020;-60
2022/02/17 09:31:18;;;;;;;7.80;1.15;;;9.90;83.10;;;;;;5069082;28;20025;-60
2022/02/17 09:33:51;;;;;;;10.30;2.00;;;9.90;83.50;;;;;;5064235;28;20021;-60
2022/02/17 09:36:17;;;;;;;9.13;1.30;;;9.90;84.00;;;;;;5053901;28;20027;-59
2022/02/17 09:38:43;;;;;;;8.32;2.15;;;10.00;83.70;;;;;;5071172;28;20028;-60
2022/02/17 09:41:10;;;;;;;9.73;1.30;;;10.00;84.00;;;;;;5070646;28;20033;-60
2022/02/17 09:43:37;;;;;;;11.18;1.73;;;10.00;82.70;;;;;;5071256;28;20025;-60
2022/02/17 09:46:04;;;;;;;9.13;1.60;;;10.10;83.60;;;;;;5072335;28;20384;-60
2022/02/17 09:48:30;;;;;;;11.55;1.10;;;10.20;82.70;;;;;;5089629;28;20028;-60
2022/02/17 09:50:56;;;;;;;8.85;1.33;;;10.20;81.40;;;;;;5108386;28;20119;-60
2022/02/17 09:53:22;;;;;;;7.80;1.30;;;10.20;81.50;;;;;;5108273;28;20095;-60
2022/02/17 09:55:47;;;;;;;8.52;1.30;;;10.30;80.60;;;;;;5092657;28;20024;-60
2022/02/17 09:58:15;;;;;;;5.30;0.90;;;10.40;81.00;;;;;;5092467;28;20032;-60
2022/02/17 10:00:41;;;;;;;14.95;3.08;;;10.40;81.00;;;;;;5081759;28;20496;-60
2022/02/17 10:03:28;;;;;;;8.50;1.23;;;10.50;80.80;;;;;;5072225;28;20025;-60
2022/02/17 10:06:08;;;;;;;7.28;1.73;;;10.60;81.60;;;;;;5066359;28;20025;-60
2022/02/17 10:08:34;;;;;;;6.53;1.30;;;10.70;81.50;;;;;;5063267;28;20028;-60
2022/02/17 10:11:00;;;;;;;8.88;1.48;;;10.80;80.70;;;;;;5069471;28;20028;-60
2022/02/17 10:13:26;;;;;;;8.95;2.33;;;10.90;80.20;;;;;;5072281;28;20052;-60
2022/02/17 10:15:57;;;;;;;9.27;1.30;;;10.90;80.50;;;;;;5053852;28;20024;-59
2022/02/17 10:18:26;;;;;;;8.45;1.15;;;11.00;78.90;;;;;;5051592;28;20063;-60
2022/02/17 10:20:52;;;;;;;11.25;1.35;;;11.20;77.70;;;;;;5048776;28;20041;-60
2022/02/17 10:23:18;;;;;;;7.68;1.33;;;11.30;78.80;;;;;;5052735;28;20451;-60
2022/02/17 10:26:02;;;;;;;7.72;1.20;;;11.60;77.00;;;;;;5069395;28;20520;-60
2022/02/17 10:28:27;;;;;;;5.43;1.00;;;12.00;75.50;;;;;;5070065;28;20056;-60
2022/02/17 10:30:54;;;;;;;6.90;1.20;;;12.40;74.10;;;;;;5067897;28;20086;-60
2022/02/17 10:33:19;;;;;;;7.32;1.58;;;14.50;70.50;;;;;;5071319;28;20021;-60
2022/02/17 10:35:55;;;;;;;4.60;0.98;;;16.80;64.60;;;;;;5071364;28;20361;-60
2022/02/17 10:38:21;;;;;;;7.75;1.67;;;18.10;56.20;;;;;;5069938;28;20028;-60
2022/02/17 10:40:54;;;;;;;5.57;1.15;;;17.90;54.90;;;;;;5071512;28;20024;-60
2022/02/17 10:43:20;;;;;;;4.15;0.82;;;18.20;54.20;;;;;;5056111;28;20396;-61
2022/02/17 10:45:48;;;;;;;9.25;1.88;;;19.10;52.50;;;;;;5072742;28;20032;-60
2022/02/17 10:48:24;;;;;;;9.63;1.77;;;20.00;49.50;;;;;;5078012;28;20059;-61
2022/02/17 10:51:13;;;;;;;8.38;1.13;;;21.50;48.20;;;;;;5060920;28;20381;-61
2022/02/17 10:53:58;;;;;;;5.90;1.03;;;21.70;45.80;;;;;;5075328;28;20032;-61
2022/02/17 10:56:24;;;;;;;4.65;1.05;;;21.20;46.60;;;;;;5074542;28;20261;-60
2022/02/17 10:58:50;;;;;;;5.25;0.95;;;21.40;45.00;;;;;;5075401;28;20036;-61
2022/02/17 11:01:21;;;;;;;3.85;1.02;;;22.40;45.40;;;;;;5075215;28;20036;-61
2022/02/17 11:03:51;;;;;;;4.22;1.30;;;23.10;43.40;;;;;;5075004;28;20041;-61
2022/02/17 11:06:18;;;;;;;5.85;1.88;;;22.20;43.60;;;;;;5094133;28;20024;-60
2022/02/17 11:08:45;;;;;;;6.07;1.20;;;21.80;43.50;;;;;;5077420;28;20029;-61
2022/02/17 11:11:14;;;;;;;5.65;1.15;;;21.40;44.40;;;;;;5068428;28;20028;-60
2022/02/17 11:13:44;;;;;;;9.27;1.60;;;22.40;43.10;;;;;;5071974;28;20099;-61
2022/02/17 11:16:10;;;;;;;6.25;1.25;;;23.60;42.50;;;;;;5072113;28;20032;-61
2022/02/17 11:18:37;;;;;;;5.78;1.13;;;24.30;40.50;;;;;;5072828;28;20484;-62
2022/02/17 11:21:02;;;;;;;5.78;1.33;;;25.60;38.90;;;;;;5072512;28;20051;-59
2022/02/17 11:23:37;;;;;;;5.43;1.25;;;25.00;39.10;;;;;;5070752;28;20020;-59
2022/02/17 11:26:17;;;;;;;5.25;1.08;;;24.00;38.80;;;;;;5071540;28;20392;-58
2022/02/17 11:28:43;;;;;;;5.28;1.15;;;22.80;40.00;;;;;;5074885;28;20103;-58
2022/02/17 11:31:10;;;;;;;7.70;0.90;;;22.00;42.00;;;;;;5072447;28;20537;-59
2022/02/17 11:33:39;;;;;;;7.53;1.48;;;23.00;42.60;;;;;;5078163;28;20153;-60
2022/02/17 11:36:21;;;;;;;5.30;1.70;;;25.10;40.10;;;;;;5074431;28;20104;-58
2022/02/17 11:39:05;;;;;;;5.63;1.20;;;27.00;38.20;;;;;;5072468;28;20016;-59
2022/02/17 11:41:33;;;;;;;6.18;1.60;;;26.70;36.60;;;;;;5073039;28;20070;-59
2022/02/17 11:44:07;;;;;;;8.07;1.58;;;25.30;37.80;;;;;;5070347;28;20078;-58
2022/02/17 11:46:42;;;;;;;6.35;1.10;;;24.00;39.50;;;;;;5071512;28;20396;-58
2022/02/17 11:49:29;;;;;;;7.78;1.83;;;23.90;40.50;;;;;;5073082;28;20090;-58
2022/02/17 11:52:13;;;;;;;5.00;1.30;;;22.50;41.70;;;;;;5072113;28;20409;-59
2022/02/17 11:54:39;;;;;;;6.45;1.48;;;21.30;44.20;;;;;;5069392;28;20099;-59
2022/02/17 11:57:05;;;;;;;9.30;1.88;;;20.40;44.90;;;;;;5070858;28;20070;-58
2022/02/17 11:59:33;;;;;;;6.78;1.75;;;20.30;46.00;;;;;;5068398;28;20028;-59
2022/02/17 12:02:03;;;;;;;5.05;1.40;;;21.00;45.60;;;;;;5068658;28;20114;-59
2022/02/17 12:04:31;;;;;;;8.15;1.50;;;22.20;43.70;;;;;;5070148;28;20020;-59
2022/02/17 12:07:24;;;;;;;3.88;1.10;;;22.50;41.60;;;;;;5069906;28;20048;-59
2022/02/17 12:09:49;;;;;;;4.93;1.00;;;22.50;41.60;;;;;;5067708;28;20029;-62
2022/02/17 12:12:27;;;;;;;5.03;0.88;;;23.10;41.60;;;;;;5078382;28;20033;-62
2022/02/17 12:14:54;;;;;;;5.10;1.50;;;24.10;39.70;;;;;;5071771;28;20020;-63
2022/02/17 12:17:31;;;;;;;6.13;1.38;;;23.70;39.20;;;;;;5071509;28;20119;-63
2022/02/17 12:20:12;;;;;;;5.22;0.98;;;23.70;40.40;;;;;;5072243;28;20084;-62
2022/02/17 12:22:58;;;;;;;8.07;1.33;;;23.60;39.90;;;;;;5073697;28;20500;-63
2022/02/17 12:25:24;;;;;;;7.53;1.20;;;23.50;40.60;;;;;;5069284;28;20024;-62
2022/02/17 12:27:52;;;;;;;7.32;1.25;;;23.00;40.10;;;;;;5072792;28;20082;-63
2022/02/17 12:30:38;;;;;;;8.20;1.52;;;22.10;41.40;;;;;;5073283;28;20617;-63
2022/02/17 12:33:08;;;;;;;4.53;1.30;;;21.50;42.60;;;;;;5073867;28;20031;-62
2022/02/17 12:35:35;;;;;;;5.82;1.20;;;20.80;43.70;;;;;;5073291;28;20032;-62
2022/02/17 12:38:07;;;;;;;3.60;0.95;;;20.40;43.90;;;;;;5073257;28;20020;-63
2022/02/17 12:40:34;;;;;;;7.63;1.23;;;20.00;44.30;;;;;;5072253;28;20067;-62
2022/02/17 12:43:01;;;;;;;6.47;1.15;;;20.40;45.60;;;;;;5073333;28;20500;-62
2022/02/17 12:45:45;;;;;;;6.78;1.00;;;21.60;44.40;;;;;;5073309;28;20048;-63